Time;durP1;ratioP1;P1;durP2;ratioP2;P2;SDS_P1;SDS_P2;PMS_P1;PMS_P2;Temp;Humidity;BMP_temperature;BMP_pressure;BME280_temperature;BME280_humidity;BME280_pressure;Samples;Min_cycle;Max_cycle;Signal;HPM_P1;HPM_P2
2021/01/02 00:00:06;;;;;;;36.67;29.33;;;3.60;99.90;;;;;;5010835;28;20470;-67
2021/01/02 00:02:54;;;;;;;40.65;28.52;;;3.70;99.90;;;;;;5010844;28;20490;-65
2021/01/02 00:05:27;;;;;;;41.72;30.02;;;3.80;99.90;;;;;;5011785;28;20420;-65
2021/01/02 00:08:13;;;;;;;42.25;29.60;;;3.60;99.90;;;;;;5011247;28;20417;-65
2021/01/02 00:10:45;;;;;;;41.30;29.25;;;3.60;99.90;;;;;;5011319;28;20421;-65
2021/01/02 00:13:19;;;;;;;45.70;31.10;;;3.60;99.90;;;;;;5011658;28;20766;-65
2021/01/02 00:16:10;;;;;;;43.50;30.75;;;3.60;99.90;;;;;;5011521;28;20515;-65
2021/01/02 00:18:41;;;;;;;45.15;30.40;;;3.60;99.90;;;;;;5008000;28;20555;-65
2021/01/02 00:21:17;;;;;;;46.77;31.77;;;3.60;99.90;;;;;;5011070;28;20502;-65
2021/01/02 00:24:18;;;;;;;49.47;32.10;;;3.50;99.90;;;;;;5011210;28;20980;-65
2021/01/02 00:26:45;;;;;;;46.40;31.23;;;3.60;99.90;;;;;;5011252;28;20487;-65
2021/01/02 00:29:19;;;;;;;43.55;30.70;;;3.50;99.90;;;;;;5011393;28;20420;-65
2021/01/02 00:32:03;;;;;;;49.17;32.63;;;3.50;99.90;;;;;;5011007;28;20417;-65
2021/01/02 00:34:53;;;;;;;46.65;31.80;;;3.50;99.90;;;;;;5011121;28;20424;-64
2021/01/02 00:37:28;;;;;;;46.67;31.00;;;3.50;99.90;;;;;;5010246;28;20427;-65
2021/01/02 00:40:04;;;;;;;45.35;31.33;;;3.50;99.90;;;;;;5010888;28;20837;-65
2021/01/02 00:42:31;;;;;;;45.45;31.65;;;3.40;99.90;;;;;;5010944;28;20413;-65
2021/01/02 00:44:58;;;;;;;46.27;33.17;;;3.50;99.90;;;;;;5010652;28;20948;-65
2021/01/02 00:47:26;;;;;;;46.25;32.35;;;3.50;99.90;;;;;;5011711;28;20468;-65
2021/01/02 00:49:54;;;;;;;47.08;32.92;;;3.40;99.90;;;;;;5010805;28;20420;-65
2021/01/02 00:52:58;;;;;;;43.97;31.45;;;3.30;99.90;;;;;;5011160;28;20412;-65
2021/01/02 00:55:53;;;;;;;47.58;31.52;;;3.50;99.90;;;;;;5011628;28;20427;-64
2021/01/02 00:58:31;;;;;;;44.33;31.35;;;3.40;99.90;;;;;;5011275;28;20413;-65
2021/01/02 01:01:01;;;;;;;45.30;31.27;;;3.40;99.90;;;;;;5010835;28;20419;-65
2021/01/02 01:03:47;;;;;;;45.15;31.83;;;3.50;99.90;;;;;;5010441;28;20490;-65
2021/01/02 01:06:16;;;;;;;46.22;32.63;;;3.40;99.90;;;;;;5011192;28;20423;-65
2021/01/02 01:08:46;;;;;;;48.45;32.25;;;3.40;99.90;;;;;;5010512;28;20916;-65
2021/01/02 01:11:14;;;;;;;49.00;33.30;;;3.40;99.90;;;;;;5010603;28;20412;-65
2021/01/02 01:13:41;;;;;;;48.47;32.40;;;3.40;99.90;;;;;;5010881;28;20416;-64
2021/01/02 01:16:08;;;;;;;47.38;32.10;;;3.40;99.90;;;;;;5010403;28;20431;-65
2021/01/02 01:18:58;;;;;;;47.50;32.42;;;3.40;99.90;;;;;;5010777;28;20426;-64
2021/01/02 01:21:29;;;;;;;48.67;33.20;;;3.40;99.90;;;;;;5010265;28;20421;-64
2021/01/02 01:24:09;;;;;;;47.28;33.00;;;3.40;99.90;;;;;;5010637;28;20460;-65
2021/01/02 01:26:54;;;;;;;51.75;35.22;;;3.40;99.90;;;;;;5010397;28;20430;-65
2021/01/02 01:29:25;;;;;;;48.67;33.17;;;3.40;99.90;;;;;;5010746;28;20888;-65
2021/01/02 01:31:56;;;;;;;50.83;34.38;;;3.30;1.00;;;;;;5010651;28;20418;-65
2021/01/02 01:34:24;;;;;;;48.53;34.27;;;3.30;1.00;;;;;;5010762;28;20460;-65
2021/01/02 01:36:50;;;;;;;48.22;33.75;;;3.40;1.00;;;;;;5010320;28;20416;-65
2021/01/02 01:39:21;;;;;;;47.13;32.88;;;3.50;99.90;;;;;;5010492;28;20420;-65
2021/01/02 01:41:53;;;;;;;50.53;33.73;;;3.50;99.90;;;;;;5010312;28;20421;-65
2021/01/02 01:44:45;;;;;;;48.65;33.08;;;3.40;99.90;;;;;;5010417;28;20436;-65
2021/01/02 01:47:14;;;;;;;54.60;36.30;;;3.40;1.00;;;;;;5010090;28;20505;-65
2021/01/02 01:50:20;;;;;;;50.90;34.47;;;3.20;1.00;;;;;;5013162;28;20773;-65
2021/01/02 01:53:20;;;;;;;51.35;34.15;;;3.20;1.00;;;;;;5013691;28;20881;-64
2021/01/02 01:55:57;;;;;;;49.85;33.97;;;3.20;1.00;;;;;;5015218;28;20425;-65
2021/01/02 01:58:38;;;;;;;48.30;33.90;;;3.30;1.00;;;;;;5014135;28;20420;-65
2021/01/02 02:01:05;;;;;;;48.85;34.28;;;3.30;1.00;;;;;;5014359;28;20417;-65
2021/01/02 02:03:36;;;;;;;50.20;32.60;;;3.20;1.00;;;;;;5013866;28;20467;-64
2021/01/02 02:06:08;;;;;;;49.05;33.75;;;3.20;1.00;;;;;;5014130;28;20837;-65
2021/01/02 02:08:43;;;;;;;51.13;34.10;;;3.10;1.00;;;;;;5014006;28;20408;-65
2021/01/02 02:11:30;;;;;;;48.85;33.80;;;3.10;1.00;;;;;;5013301;28;20417;-65
2021/01/02 02:14:01;;;;;;;49.10;33.90;;;3.10;1.00;;;;;;5013863;28;20409;-65
2021/01/02 02:16:40;;;;;;;50.22;33.13;;;3.00;1.00;;;;;;5013469;28;20416;-64
2021/01/02 02:19:13;;;;;;;42.90;31.50;;;3.00;1.00;;;;;;5013870;28;20406;-65
2021/01/02 02:21:47;;;;;;;45.33;31.98;;;3.00;1.00;;;;;;5014232;28;20423;-64
2021/01/02 02:24:23;;;;;;;46.10;31.00;;;2.90;1.00;;;;;;5014094;28;20952;-65
2021/01/02 02:26:53;;;;;;;44.28;32.47;;;2.90;1.00;;;;;;5013376;28;20413;-65
2021/01/02 02:29:25;;;;;;;47.38;31.73;;;2.90;1.00;;;;;;5013068;28;20881;-65
2021/01/02 02:31:55;;;;;;;40.90;30.00;;;2.90;1.00;;;;;;5013157;28;20420;-65
2021/01/02 02:34:24;;;;;;;44.00;29.70;;;2.90;1.00;;;;;;5013217;28;20409;-65
2021/01/02 02:36:50;;;;;;;48.10;31.88;;;3.00;1.00;;;;;;5013082;28;20427;-65
2021/01/02 02:39:16;;;;;;;43.90;30.38;;;3.00;1.00;;;;;;5012898;28;20451;-65
2021/01/02 02:41:45;;;;;;;44.95;30.10;;;2.90;1.00;;;;;;5012681;28;20425;-64
2021/01/02 02:44:16;;;;;;;43.00;30.30;;;3.00;1.00;;;;;;5013276;28;20482;-65
2021/01/02 02:46:45;;;;;;;38.92;28.42;;;3.00;1.00;;;;;;5012955;28;20413;-67
2021/01/02 02:49:12;;;;;;;41.50;28.35;;;3.00;1.00;;;;;;5013306;28;20828;-65
2021/01/02 02:51:52;;;;;;;39.70;27.85;;;3.10;1.00;;;;;;5012688;28;20921;-65
2021/01/02 02:54:19;;;;;;;36.90;26.83;;;3.00;1.00;;;;;;5013872;28;20417;-65
2021/01/02 02:56:48;;;;;;;39.97;28.00;;;3.00;1.00;;;;;;5014080;28;20412;-65
2021/01/02 02:59:14;;;;;;;36.47;26.75;;;3.00;1.00;;;;;;5012755;28;20805;-64
2021/01/02 03:01:40;;;;;;;40.30;27.63;;;3.00;1.00;;;;;;5012446;28;20424;-65
2021/01/02 03:04:07;;;;;;;35.35;26.05;;;3.00;1.00;;;;;;5012836;28;20428;-65
2021/01/02 03:06:33;;;;;;;35.30;26.38;;;3.10;1.00;;;;;;5012505;28;20448;-65
2021/01/02 03:08:59;;;;;;;37.50;26.30;;;3.10;1.00;;;;;;5012709;28;20502;-65
2021/01/02 03:11:27;;;;;;;32.95;23.75;;;3.10;1.00;;;;;;5012228;28;20832;-65
2021/01/02 03:13:53;;;;;;;33.28;24.20;;;3.00;1.00;;;;;;5012638;28;20408;-65
2021/01/02 03:16:21;;;;;;;36.35;24.70;;;2.90;1.00;;;;;;5012491;28;20416;-65
2021/01/02 03:18:47;;;;;;;32.85;23.42;;;3.00;1.00;;;;;;5012130;28;20786;-65
2021/01/02 03:21:14;;;;;;;31.60;22.13;;;3.00;1.00;;;;;;5012059;28;20874;-65
2021/01/02 03:23:45;;;;;;;35.55;23.92;;;2.90;1.00;;;;;;5012150;28;20436;-65
2021/01/02 03:26:11;;;;;;;31.30;22.55;;;3.00;1.00;;;;;;5012512;28;20420;-65
2021/01/02 03:28:37;;;;;;;31.90;23.00;;;2.80;1.00;;;;;;5012310;28;20416;-65
2021/01/02 03:31:04;;;;;;;33.55;24.30;;;2.90;1.00;;;;;;5011799;28;20413;-64
2021/01/02 03:33:30;;;;;;;29.50;21.92;;;2.80;1.00;;;;;;5012021;28;20882;-65
2021/01/02 03:36:00;;;;;;;38.22;24.65;;;2.80;1.00;;;;;;5012168;28;20413;-65
2021/01/02 03:38:31;;;;;;;35.00;22.63;;;2.80;1.00;;;;;;5012173;28;20825;-65
2021/01/02 03:40:58;;;;;;;32.20;22.70;;;2.70;1.00;;;;;;5011983;28;20412;-65
2021/01/02 03:43:24;;;;;;;33.20;23.10;;;2.80;1.00;;;;;;5011847;28;20781;-65
2021/01/02 03:45:50;;;;;;;32.47;22.80;;;2.80;1.00;;;;;;5012083;28;20547;-64
2021/01/02 03:48:17;;;;;;;31.23;22.42;;;2.80;1.00;;;;;;5011664;28;20417;-65
2021/01/02 03:50:43;;;;;;;33.83;22.98;;;2.80;1.00;;;;;;5011892;28;20408;-65
2021/01/02 03:53:09;;;;;;;32.47;22.45;;;2.80;1.00;;;;;;5011936;28;20471;-65
2021/01/02 03:55:36;;;;;;;29.65;22.48;;;2.90;1.00;;;;;;5011586;28;20470;-65
2021/01/02 03:58:02;;;;;;;30.47;21.63;;;3.00;1.00;;;;;;5011751;28;20440;-64
2021/01/02 04:00:28;;;;;;;30.95;21.52;;;2.90;1.00;;;;;;5011174;28;20412;-65
2021/01/02 04:02:54;;;;;;;32.95;23.60;;;2.80;1.00;;;;;;5011557;28;20417;-65
2021/01/02 04:05:20;;;;;;;33.50;24.00;;;2.80;1.00;;;;;;5011938;28;20504;-65
2021/01/02 04:07:46;;;;;;;30.42;21.50;;;2.80;1.00;;;;;;5011286;28;20417;-64
2021/01/02 04:10:13;;;;;;;31.30;22.23;;;2.80;1.00;;;;;;5011486;28;20428;-65
2021/01/02 04:12:40;;;;;;;31.75;23.20;;;2.80;1.00;;;;;;5011458;28;20423;-65
2021/01/02 04:15:07;;;;;;;31.75;22.55;;;2.80;1.00;;;;;;5011866;28;20782;-64
2021/01/02 04:17:34;;;;;;;30.52;21.90;;;2.90;1.00;;;;;;5011736;28;21124;-65
2021/01/02 04:20:00;;;;;;;31.00;22.85;;;2.90;1.00;;;;;;5011201;28;20446;-65
2021/01/02 04:22:26;;;;;;;30.00;22.13;;;2.90;1.00;;;;;;5011926;28;20874;-65
2021/01/02 04:24:52;;;;;;;30.23;21.60;;;2.90;1.00;;;;;;5011650;28;21003;-65
2021/01/02 04:27:18;;;;;;;31.88;22.60;;;3.00;1.00;;;;;;5012061;28;20422;-64
2021/01/02 04:29:45;;;;;;;31.17;22.13;;;3.10;1.00;;;;;;5020491;28;20419;-64
2021/01/02 04:32:11;;;;;;;32.30;21.77;;;3.00;1.00;;;;;;5032215;28;20502;-64
2021/01/02 04:34:38;;;;;;;31.85;22.60;;;3.10;1.00;;;;;;5032233;28;20493;-65
2021/01/02 04:37:04;;;;;;;32.95;21.88;;;3.10;99.90;;;;;;5031208;28;20445;-64
2021/01/02 04:39:30;;;;;;;27.73;21.20;;;3.10;99.90;;;;;;5031312;28;20423;-65
2021/01/02 04:41:56;;;;;;;30.52;21.90;;;3.10;99.90;;;;;;5031079;28;20418;-65
2021/01/02 04:44:23;;;;;;;28.77;20.83;;;3.20;99.90;;;;;;5030946;28;20427;-64
2021/01/02 04:46:52;;;;;;;34.75;23.13;;;3.20;99.90;;;;;;5031094;28;20962;-64
2021/01/02 04:49:18;;;;;;;31.10;23.50;;;3.30;99.90;;;;;;5030987;28;20411;-64
2021/01/02 04:51:44;;;;;;;35.45;22.52;;;3.30;99.90;;;;;;5030406;28;20899;-64
2021/01/02 04:54:11;;;;;;;31.85;22.67;;;3.20;99.90;;;;;;5030834;28;20415;-64
2021/01/02 04:56:38;;;;;;;34.83;24.10;;;3.20;99.90;;;;;;5030381;28;20415;-64
2021/01/02 04:59:09;;;;;;;31.30;23.98;;;3.20;99.90;;;;;;5030765;28;20411;-64
2021/01/02 05:01:37;;;;;;;36.67;25.42;;;3.10;99.90;;;;;;5031423;28;20887;-63
2021/01/02 05:04:04;;;;;;;35.65;24.33;;;3.10;99.90;;;;;;5031130;28;20969;-63
2021/01/02 05:06:31;;;;;;;38.67;25.88;;;3.00;99.90;;;;;;5031647;28;20419;-64
2021/01/02 05:08:59;;;;;;;38.35;25.40;;;3.10;99.90;;;;;;5030905;28;20490;-64
2021/01/02 05:11:26;;;;;;;32.75;24.35;;;3.10;99.90;;;;;;5030385;28;20419;-64
2021/01/02 05:14:00;;;;;;;35.13;24.90;;;3.00;99.90;;;;;;5030831;28;20410;-65
2021/01/02 05:16:34;;;;;;;33.35;23.95;;;3.00;99.90;;;;;;5030394;28;20423;-64
2021/01/02 05:19:02;;;;;;;32.33;23.85;;;3.00;99.90;;;;;;5030544;28;20415;-64
2021/01/02 05:21:30;;;;;;;31.95;23.20;;;2.90;99.90;;;;;;5030171;28;20407;-64
2021/01/02 05:24:13;;;;;;;32.25;23.92;;;2.90;99.90;;;;;;5032745;28;20904;-64
2021/01/02 05:26:42;;;;;;;33.03;22.38;;;2.90;99.90;;;;;;5034649;28;20414;-64
2021/01/02 05:29:19;;;;;;;31.90;22.48;;;3.00;99.90;;;;;;5035512;28;20807;-63
2021/01/02 05:31:48;;;;;;;29.83;22.23;;;2.90;99.90;;;;;;5035016;28;21033;-64
2021/01/02 05:34:16;;;;;;;31.67;22.27;;;2.90;99.90;;;;;;5034406;28;20411;-64
2021/01/02 05:36:44;;;;;;;34.07;24.63;;;2.80;99.90;;;;;;5034398;28;20419;-64
2021/01/02 05:39:16;;;;;;;31.42;23.05;;;2.80;99.90;;;;;;5034260;28;20834;-64
2021/01/02 05:41:51;;;;;;;30.97;22.53;;;2.80;99.90;;;;;;5033986;28;20911;-64
2021/01/02 05:44:18;;;;;;;30.07;21.73;;;2.90;99.90;;;;;;5033992;28;20950;-64
2021/01/02 05:46:50;;;;;;;30.42;21.75;;;3.00;99.90;;;;;;5033905;28;20418;-65
2021/01/02 05:49:37;;;;;;;32.58;22.20;;;3.00;99.90;;;;;;5034275;28;20433;-64
2021/01/02 05:52:06;;;;;;;32.40;22.55;;;2.90;99.90;;;;;;5033408;28;20469;-65
2021/01/02 05:54:33;;;;;;;30.05;22.27;;;3.00;99.90;;;;;;5033949;28;20438;-64
2021/01/02 05:57:01;;;;;;;30.40;22.20;;;3.00;99.90;;;;;;5033641;28;20423;-64
2021/01/02 05:59:32;;;;;;;32.05;21.95;;;3.00;99.90;;;;;;5033857;28;20419;-65
2021/01/02 06:01:59;;;;;;;32.58;21.92;;;3.00;99.90;;;;;;5033720;28;20477;-64
2021/01/02 06:04:25;;;;;;;28.85;22.10;;;3.00;99.90;;;;;;5033653;28;20768;-64
2021/01/02 06:07:08;;;;;;;33.03;23.50;;;3.00;99.90;;;;;;5033708;28;20415;-64
2021/01/02 06:09:35;;;;;;;31.95;23.17;;;2.90;99.90;;;;;;5033673;28;20453;-64
2021/01/02 06:12:05;;;;;;;29.73;22.73;;;2.80;99.90;;;;;;5033360;28;20423;-65
2021/01/02 06:14:35;;;;;;;33.13;22.23;;;2.80;99.90;;;;;;5033788;28;20446;-64
2021/01/02 06:17:06;;;;;;;32.07;22.50;;;2.80;99.90;;;;;;5033414;28;20905;-64
2021/01/02 06:19:33;;;;;;;31.63;22.40;;;2.80;99.90;;;;;;5033476;28;20419;-64
2021/01/02 06:22:00;;;;;;;32.20;22.50;;;2.80;99.90;;;;;;5032971;28;20423;-64
2021/01/02 06:24:27;;;;;;;29.02;20.73;;;2.80;99.90;;;;;;5033273;28;20430;-64
2021/01/02 06:26:53;;;;;;;30.90;22.65;;;2.80;99.90;;;;;;5033202;28;20908;-63
2021/01/02 06:29:20;;;;;;;33.55;23.10;;;2.70;99.90;;;;;;5033305;28;20419;-64
2021/01/02 06:31:46;;;;;;;32.15;22.02;;;2.80;99.90;;;;;;5033054;28;20486;-64
2021/01/02 06:34:13;;;;;;;32.90;22.25;;;2.80;99.90;;;;;;5033097;28;20415;-65
2021/01/02 06:36:40;;;;;;;27.73;20.88;;;2.90;99.90;;;;;;5033082;28;20427;-64
2021/01/02 06:39:20;;;;;;;27.73;21.25;;;2.90;99.90;;;;;;5033113;28;20435;-65
2021/01/02 06:41:48;;;;;;;28.20;22.00;;;2.90;99.90;;;;;;5032822;28;20415;-65
2021/01/02 06:44:39;;;;;;;30.10;21.20;;;2.90;99.90;;;;;;5033238;28;20423;-65
2021/01/02 06:47:18;;;;;;;33.87;21.93;;;2.80;99.90;;;;;;5032727;28;20460;-65
2021/01/02 06:49:45;;;;;;;30.67;21.95;;;2.80;99.90;;;;;;5033177;28;20827;-64
2021/01/02 06:52:30;;;;;;;33.47;22.17;;;2.70;99.90;;;;;;5032269;28;20419;-64
2021/01/02 06:55:21;;;;;;;30.55;22.17;;;2.70;99.90;;;;;;5032898;28;20411;-64
2021/01/02 06:57:48;;;;;;;30.65;21.65;;;2.70;99.90;;;;;;5032502;28;20426;-64
2021/01/02 07:00:22;;;;;;;31.42;21.95;;;2.70;99.90;;;;;;5032799;28;20418;-64
2021/01/02 07:02:49;;;;;;;31.05;22.35;;;2.70;99.90;;;;;;5032767;28;20465;-64
2021/01/02 07:05:42;;;;;;;30.30;22.67;;;2.70;99.90;;;;;;5032578;28;20427;-64
2021/01/02 07:08:43;;;;;;;31.52;21.80;;;2.70;99.90;;;;;;5032244;28;20426;-64
2021/01/02 07:11:33;;;;;;;32.30;21.67;;;2.70;99.90;;;;;;5032608;28;20419;-64
2021/01/02 07:14:24;;;;;;;33.00;22.23;;;2.70;99.90;;;;;;5034139;28;20423;-65
2021/01/02 07:16:53;;;;;;;31.65;22.52;;;2.70;99.90;;;;;;5033185;28;20422;-64
2021/01/02 07:19:52;;;;;;;27.17;20.63;;;2.70;99.90;;;;;;5032181;28;20411;-64
2021/01/02 07:22:24;;;;;;;31.55;21.42;;;2.70;99.90;;;;;;5031411;28;20946;-63
2021/01/02 07:24:52;;;;;;;32.83;21.92;;;2.80;99.90;;;;;;5031858;28;20449;-63
2021/01/02 07:27:20;;;;;;;30.77;20.17;;;2.80;99.90;;;;;;5032230;28;20423;-64
2021/01/02 07:29:50;;;;;;;28.45;19.95;;;2.80;99.90;;;;;;5031993;28;20414;-64
2021/01/02 07:32:18;;;;;;;29.58;22.00;;;2.80;99.90;;;;;;5031744;28;20410;-64
2021/01/02 07:34:46;;;;;;;29.25;20.63;;;2.70;99.90;;;;;;5032079;28;20419;-64
2021/01/02 07:37:15;;;;;;;31.20;21.52;;;2.70;99.90;;;;;;5031954;28;20422;-64
2021/01/02 07:39:52;;;;;;;31.88;21.33;;;2.70;99.90;;;;;;5032083;28;20476;-64
2021/01/02 07:42:21;;;;;;;31.98;21.48;;;2.70;99.90;;;;;;5031705;28;20411;-64
2021/01/02 07:44:54;;;;;;;28.83;20.55;;;2.80;99.90;;;;;;5032210;28;20422;-64
2021/01/02 07:47:20;;;;;;;32.97;21.27;;;2.70;99.90;;;;;;5030801;28;20418;-64
2021/01/02 07:49:46;;;;;;;30.35;21.42;;;2.60;99.90;;;;;;5031557;28;20887;-64
2021/01/02 07:52:12;;;;;;;30.08;20.63;;;2.60;99.90;;;;;;5031618;28;20418;-64
2021/01/02 07:54:39;;;;;;;30.60;21.65;;;2.70;99.90;;;;;;5031572;28;20765;-64
2021/01/02 07:57:06;;;;;;;29.42;21.02;;;2.70;99.90;;;;;;5031832;28;20449;-64
2021/01/02 07:59:34;;;;;;;28.50;20.60;;;2.70;99.90;;;;;;5031527;28;20415;-65
2021/01/02 08:02:03;;;;;;;32.20;20.63;;;2.60;99.90;;;;;;5031673;28;20422;-64
2021/01/02 08:04:31;;;;;;;29.77;20.00;;;2.60;99.90;;;;;;5029772;28;20437;-64
2021/01/02 08:06:59;;;;;;;34.80;21.95;;;2.50;99.90;;;;;;5031860;28;20926;-64
2021/01/02 08:09:26;;;;;;;30.90;22.25;;;2.60;99.90;;;;;;5031753;28;20423;-64
2021/01/02 08:11:57;;;;;;;31.98;21.73;;;2.60;99.90;;;;;;5030827;28;20418;-64
2021/01/02 08:14:25;;;;;;;28.77;21.25;;;2.70;99.90;;;;;;5031768;28;20438;-63
2021/01/02 08:16:56;;;;;;;32.38;22.60;;;2.80;99.90;;;;;;5030918;28;20468;-64
2021/01/02 08:19:23;;;;;;;32.67;22.05;;;2.70;99.90;;;;;;5031353;28;20419;-64
2021/01/02 08:21:51;;;;;;;31.35;21.75;;;2.80;99.90;;;;;;5030874;28;20426;-64
2021/01/02 08:24:18;;;;;;;34.42;23.13;;;2.70;99.90;;;;;;5030631;28;20431;-63
2021/01/02 08:26:44;;;;;;;33.25;22.63;;;2.70;99.90;;;;;;5031190;28;20421;-63
2021/01/02 08:29:10;;;;;;;34.05;22.95;;;2.80;99.90;;;;;;5031149;28;20415;-63
2021/01/02 08:31:38;;;;;;;33.45;21.63;;;2.80;99.90;;;;;;5030756;28;20408;-64
2021/01/02 08:34:06;;;;;;;29.15;22.50;;;2.90;99.10;;;;;;5031511;28;20465;-64
2021/01/02 08:36:40;;;;;;;32.50;21.75;;;2.90;95.30;;;;;;5030650;28;20411;-64
2021/01/02 08:39:06;;;;;;;30.98;21.30;;;2.90;91.40;;;;;;5031103;28;20419;-64
2021/01/02 08:41:33;;;;;;;32.25;22.13;;;3.00;85.00;;;;;;5030575;28;20437;-64
2021/01/02 08:44:01;;;;;;;33.30;22.65;;;3.00;71.10;;;;;;5030547;28;20462;-65
2021/01/02 08:46:27;;;;;;;32.25;22.90;;;3.00;65.90;;;;;;5031143;28;20403;-65
2021/01/02 08:48:54;;;;;;;36.47;23.30;;;2.90;58.80;;;;;;5030764;28;20896;-65
2021/01/02 08:51:24;;;;;;;33.63;23.02;;;2.90;89.90;;;;;;5030768;28;20484;-66
2021/01/02 08:53:51;;;;;;;32.45;22.35;;;2.90;81.30;;;;;;5031067;28;20480;-65
2021/01/02 08:56:25;;;;;;;30.13;21.83;;;2.90;81.70;;;;;;5028534;28;20823;-63
2021/01/02 08:58:51;;;;;;;34.55;22.13;;;3.00;90.30;;;;;;5033689;28;20425;-63
2021/01/02 09:01:18;;;;;;;29.08;20.02;;;3.10;80.70;;;;;;5034663;28;20566;-65
2021/01/02 09:03:44;;;;;;;32.10;21.40;;;3.10;65.00;;;;;;5034351;28;20418;-64
2021/01/02 09:06:21;;;;;;;29.30;21.77;;;3.10;58.90;;;;;;5034330;28;20414;-64
2021/01/02 09:08:59;;;;;;;32.33;22.65;;;3.10;42.00;;;;;;5034831;28;20476;-63
2021/01/02 09:11:25;;;;;;;29.35;21.05;;;3.10;54.20;;;;;;5034850;28;20839;-64
2021/01/02 09:14:05;;;;;;;34.27;23.10;;;3.10;54.30;;;;;;5034949;28;20487;-66
2021/01/02 09:16:31;;;;;;;35.28;23.27;;;3.10;59.00;;;;;;5034751;28;20921;-65
2021/01/02 09:18:57;;;;;;;30.02;21.40;;;3.10;60.50;;;;;;5033238;28;20422;-64
2021/01/02 09:21:25;;;;;;;30.45;20.90;;;3.10;66.00;;;;;;5034542;28;20420;-64
2021/01/02 09:23:53;;;;;;;30.27;21.33;;;3.10;49.60;;;;;;5034537;28;20453;-64
2021/01/02 09:26:32;;;;;;;33.00;21.52;;;3.20;58.30;;;;;;5034691;28;20509;-65
2021/01/02 09:29:00;;;;;;;33.72;23.67;;;3.20;40.50;;;;;;5034673;28;20777;-64
2021/01/02 09:31:27;;;;;;;35.17;23.40;;;3.30;58.80;;;;;;5034474;28;20415;-64
2021/01/02 09:33:54;;;;;;;35.20;22.77;;;3.20;42.40;;;;;;5034308;28;20492;-64
2021/01/02 09:36:21;;;;;;;35.40;22.85;;;3.30;39.50;;;;;;5034947;28;20415;-64
2021/01/02 09:38:48;;;;;;;32.10;22.33;;;3.30;28.80;;;;;;5034352;28;20429;-64
2021/01/02 09:41:18;;;;;;;32.00;22.80;;;3.30;18.90;;;;;;5034218;28;20845;-65
2021/01/02 09:43:44;;;;;;;36.80;24.30;;;3.30;32.60;;;;;;5034120;28;20426;-63
2021/01/02 09:46:16;;;;;;;31.40;23.20;;;3.30;24.40;;;;;;5016667;28;20428;-64
2021/01/02 09:48:46;;;;;;;34.05;23.45;;;3.70;23.80;;;;;;5013859;28;20431;-63
2021/01/02 09:51:12;;;;;;;31.95;22.92;;;3.60;1.00;;;;;;5013782;28;20440;-65
2021/01/02 09:53:38;;;;;;;34.75;24.05;;;3.50;1.00;;;;;;5014638;28;20780;-65
2021/01/02 09:56:05;;;;;;;35.13;22.30;;;3.50;1.00;;;;;;5014719;28;20790;-64
2021/01/02 09:58:32;;;;;;;33.00;23.02;;;3.50;1.00;;;;;;5015122;28;20425;-64
2021/01/02 10:00:59;;;;;;;34.57;23.77;;;3.40;1.00;;;;;;5015446;28;20425;-63
2021/01/02 10:03:25;;;;;;;38.90;24.88;;;3.50;1.00;;;;;;5015263;28;20435;-64
2021/01/02 10:05:51;;;;;;;37.95;23.63;;;3.50;11.60;;;;;;5015317;28;20436;-64
2021/01/02 10:08:17;;;;;;;33.05;22.85;;;3.50;1.00;;;;;;5013766;28;20421;-64
2021/01/02 10:10:44;;;;;;;34.50;23.58;;;3.50;4.20;;;;;;5012870;28;20424;-65
2021/01/02 10:13:10;;;;;;;31.80;23.08;;;3.60;1.00;;;;;;5025454;28;20418;-66
2021/01/02 10:15:37;;;;;;;35.50;23.73;;;3.60;1.00;;;;;;5020085;28;20492;-64
2021/01/02 10:18:03;;;;;;;36.97;23.80;;;3.60;1.00;;;;;;5013184;28;20416;-64
2021/01/02 10:20:30;;;;;;;35.05;23.67;;;3.70;1.00;;;;;;5013369;28;20428;-64
2021/01/02 10:22:56;;;;;;;33.50;23.45;;;3.80;5.30;;;;;;5012973;28;20913;-64
2021/01/02 10:25:22;;;;;;;36.65;24.00;;;3.80;1.00;;;;;;5012760;28;20425;-64
2021/01/02 10:27:48;;;;;;;33.30;22.40;;;3.80;1.00;;;;;;5012990;28;20421;-64
2021/01/02 10:30:16;;;;;;;34.50;22.95;;;3.90;1.00;;;;;;5012401;28;20424;-65
2021/01/02 10:32:43;;;;;;;33.70;22.33;;;3.90;1.00;;;;;;5012914;28;20417;-64
2021/01/02 10:35:13;;;;;;;34.40;23.40;;;4.00;1.00;;;;;;5012977;28;20408;-65
2021/01/02 10:37:39;;;;;;;33.83;23.58;;;3.90;1.00;;;;;;5012676;28;20421;-65
2021/01/02 10:40:07;;;;;;;36.00;23.67;;;3.80;1.00;;;;;;5012753;28;20881;-65
2021/01/02 10:42:34;;;;;;;34.85;22.95;;;3.90;1.00;;;;;;5012315;28;20551;-65
2021/01/02 10:45:01;;;;;;;32.13;22.45;;;3.90;1.00;;;;;;5012626;28;20435;-65
2021/01/02 10:47:29;;;;;;;31.60;20.95;;;3.90;1.00;;;;;;5013585;28;20412;-65
2021/01/02 10:49:57;;;;;;;31.52;20.65;;;3.90;1.00;;;;;;5012863;28;20416;-65
2021/01/02 10:52:25;;;;;;;30.70;21.50;;;3.90;1.00;;;;;;5012356;28;20941;-65
2021/01/02 10:54:53;;;;;;;28.65;20.60;;;4.00;1.00;;;;;;5012739;28;20416;-65
2021/01/02 10:57:24;;;;;;;27.15;20.33;;;4.10;1.00;;;;;;5012219;28;20832;-65
2021/01/02 10:59:51;;;;;;;30.63;21.77;;;4.00;1.00;;;;;;5012645;28;20420;-65
2021/01/02 11:02:17;;;;;;;29.88;19.98;;;4.00;1.00;;;;;;5012042;28;20420;-64
2021/01/02 11:04:44;;;;;;;28.10;18.55;;;4.10;1.00;;;;;;5012363;28;20428;-64
2021/01/02 11:07:11;;;;;;;27.77;19.75;;;4.00;1.00;;;;;;5012013;28;20762;-65
2021/01/02 11:09:38;;;;;;;30.92;20.95;;;4.10;1.00;;;;;;5012359;28;20417;-65
2021/01/02 11:12:04;;;;;;;30.23;19.92;;;4.20;1.00;;;;;;5012490;28;20424;-65
2021/01/02 11:14:30;;;;;;;30.80;19.88;;;4.20;1.00;;;;;;5012266;28;20424;-64
2021/01/02 11:16:57;;;;;;;27.70;19.85;;;4.20;1.00;;;;;;5012344;28;20424;-65
2021/01/02 11:19:25;;;;;;;24.40;19.15;;;4.30;1.00;;;;;;5012481;28;20419;-64
2021/01/02 11:21:53;;;;;;;25.80;18.52;;;4.30;1.00;;;;;;5011204;28;20417;-65
2021/01/02 11:24:23;;;;;;;27.55;20.15;;;4.30;1.00;;;;;;5012296;28;20429;-67
2021/01/02 11:26:51;;;;;;;25.02;18.15;;;4.40;1.00;;;;;;5012283;28;20416;-65
2021/01/02 11:29:19;;;;;;;27.27;19.55;;;4.50;1.00;;;;;;5012423;28;20790;-65
2021/01/02 11:31:46;;;;;;;25.35;18.73;;;4.60;1.00;;;;;;5012057;28;20424;-65
2021/01/02 11:34:13;;;;;;;25.27;17.85;;;4.70;1.00;;;;;;5012225;28;20836;-66
2021/01/02 11:36:39;;;;;;;22.55;17.40;;;4.70;1.00;;;;;;5011948;28;20420;-67
2021/01/02 11:39:07;;;;;;;24.88;17.13;;;4.70;1.00;;;;;;5012047;28;20421;-64
2021/01/02 11:41:36;;;;;;;21.55;16.17;;;4.60;1.00;;;;;;5012080;28;20790;-64
2021/01/02 11:44:03;;;;;;;24.40;17.25;;;4.40;1.00;;;;;;5012140;28;20412;-64
2021/01/02 11:46:31;;;;;;;21.35;17.08;;;4.40;1.00;;;;;;5011320;28;20425;-64
2021/01/02 11:48:57;;;;;;;24.20;16.88;;;4.50;1.00;;;;;;5011838;28;20416;-65
2021/01/02 11:51:24;;;;;;;22.55;16.30;;;4.60;1.00;;;;;;5011474;28;20409;-65
2021/01/02 11:53:50;;;;;;;23.48;17.67;;;4.60;1.00;;;;;;5011724;28;20421;-66
2021/01/02 11:56:18;;;;;;;24.05;16.90;;;4.70;1.00;;;;;;5012016;28;20408;-65
2021/01/02 11:58:45;;;;;;;23.08;16.27;;;4.80;1.00;;;;;;5011358;28;20425;-66
2021/01/02 12:01:12;;;;;;;24.17;16.23;;;4.90;1.00;;;;;;5011619;28;20466;-67
2021/01/02 12:03:38;;;;;;;21.75;16.38;;;4.80;1.00;;;;;;5011376;28;20840;-66
2021/01/02 12:06:05;;;;;;;25.42;18.30;;;4.80;1.00;;;;;;5010588;28;21213;-67
2021/01/02 12:08:31;;;;;;;25.42;18.42;;;4.70;1.00;;;;;;5011760;28;20416;-66
2021/01/02 12:10:57;;;;;;;25.92;17.52;;;4.60;1.00;;;;;;5010949;28;20413;-67
2021/01/02 12:13:23;;;;;;;27.13;19.30;;;4.60;1.00;;;;;;5011668;28;20927;-67
2021/01/02 12:15:50;;;;;;;24.05;17.38;;;4.60;1.00;;;;;;5011704;28;20424;-68
2021/01/02 12:18:17;;;;;;;25.85;18.63;;;4.40;1.00;;;;;;5012102;28;20413;-67
2021/01/02 12:20:43;;;;;;;24.77;18.40;;;4.40;1.00;;;;;;5010974;28;20424;-66
2021/01/02 12:23:09;;;;;;;23.65;17.92;;;4.60;1.00;;;;;;5010970;28;20790;-66
2021/01/02 12:25:35;;;;;;;23.73;17.27;;;4.80;1.00;;;;;;5010896;28;20428;-66
2021/01/02 12:28:01;;;;;;;22.67;16.27;;;4.90;1.00;;;;;;5011272;28;20420;-66
2021/01/02 12:30:29;;;;;;;22.77;17.02;;;4.80;1.00;;;;;;5010995;28;20424;-67
2021/01/02 12:32:57;;;;;;;22.60;16.90;;;4.90;1.00;;;;;;5010708;28;20850;-66
2021/01/02 12:35:24;;;;;;;23.55;17.55;;;4.80;1.00;;;;;;5010908;28;20424;-65
2021/01/02 12:37:50;;;;;;;25.70;17.40;;;4.80;1.00;;;;;;5011066;28;20413;-65
2021/01/02 12:40:17;;;;;;;23.30;16.77;;;4.80;1.00;;;;;;5011297;28;20420;-65
2021/01/02 12:42:43;;;;;;;22.35;17.30;;;4.90;1.00;;;;;;5010514;28;20424;-65
2021/01/02 12:45:11;;;;;;;23.05;16.30;;;4.90;1.00;;;;;;5010586;28;20920;-65
2021/01/02 12:47:37;;;;;;;25.63;17.02;;;4.90;1.00;;;;;;5010752;28;20425;-65
2021/01/02 12:50:08;;;;;;;23.23;16.58;;;5.10;1.00;;;;;;5011004;28;20416;-65
2021/01/02 12:52:35;;;;;;;22.20;16.50;;;5.20;1.00;;;;;;5010635;28;20462;-65
2021/01/02 12:55:01;;;;;;;20.90;15.45;;;5.10;1.00;;;;;;5010639;28;20417;-65